Time;durP1;ratioP1;P1;durP2;ratioP2;P2;SDS_P1;SDS_P2;PMS_P1;PMS_P2;Temp;Humidity;BMP_temperature;BMP_pressure;BME280_temperature;BME280_humidity;BME280_pressure;Samples;Min_cycle;Max_cycle;Signal;HPM_P1;HPM_P2
2021/12/15 00:05:27;;;;;;;0.20;0.00;;;8.20;99.90;;;;;;20824737;28;20324;-64
2021/12/15 00:15:31;;;;;;;0.20;0.00;;;8.00;99.90;;;;;;20823791;28;20226;-65
2021/12/15 00:25:40;;;;;;;0.20;0.00;;;8.10;99.90;;;;;;20839318;28;20790;-65
2021/12/15 00:35:44;;;;;;;0.20;0.10;;;8.20;99.90;;;;;;20835098;28;20257;-66
2021/12/15 00:45:49;;;;;;;0.20;0.10;;;8.10;99.90;;;;;;20837374;28;20243;-67
2021/12/15 00:55:53;;;;;;;0.20;0.00;;;8.40;99.90;;;;;;20836785;28;20221;-64
2021/12/15 01:06:04;;;;;;;0.20;0.07;;;8.70;99.90;;;;;;20819066;28;20237;-65
2021/12/15 01:26:31;;;;;;;0.20;0.10;;;9.00;99.90;;;;;;20737779;28;20631;-64
2021/12/15 01:36:35;;;;;;;0.20;0.10;;;9.10;99.90;;;;;;20793358;28;20221;-66
2021/12/15 01:46:55;;;;;;;0.20;0.10;;;9.00;99.90;;;;;;20832829;28;20285;-66
2021/12/15 01:56:58;;;;;;;0.20;0.00;;;8.90;99.90;;;;;;20832655;28;20304;-66
2021/12/15 02:07:07;;;;;;;0.20;0.10;;;8.70;99.90;;;;;;20830812;28;20614;-65
2021/12/15 02:17:11;;;;;;;0.20;0.10;;;8.80;99.90;;;;;;20830741;28;20264;-65
2021/12/15 02:27:16;;;;;;;0.20;0.10;;;8.90;99.90;;;;;;20829014;28;20257;-65
2021/12/15 02:37:21;;;;;;;0.20;0.07;;;8.50;99.90;;;;;;20826916;28;20655;-66
2021/12/15 02:47:30;;;;;;;0.20;0.07;;;8.10;99.90;;;;;;20810614;28;20206;-66
2021/12/15 02:57:34;;;;;;;0.20;0.07;;;7.80;99.90;;;;;;20828156;28;20682;-65
2021/12/15 03:07:44;;;;;;;0.20;0.10;;;7.60;99.90;;;;;;20827907;28;20733;-66
2021/12/15 03:17:54;;;;;;;0.20;0.10;;;7.70;99.90;;;;;;20826665;28;20230;-66
2021/12/15 03:38:21;;;;;;;0.20;0.10;;;7.60;99.90;;;;;;20822804;28;20797;-66
2021/12/15 03:48:29;;;;;;;0.20;0.07;;;7.60;99.90;;;;;;20825040;28;20197;-67
2021/12/15 03:58:32;;;;;;;0.20;0.10;;;7.90;99.90;;;;;;20839256;28;20222;-65
2021/12/15 04:08:40;;;;;;;0.20;0.10;;;7.70;99.90;;;;;;20840835;28;20321;-65
2021/12/15 04:18:43;;;;;;;0.20;0.10;;;7.80;99.90;;;;;;20659550;28;20227;-66
2021/12/15 04:28:48;;;;;;;0.20;0.10;;;7.90;99.90;;;;;;20674898;28;20199;-65
2021/12/15 04:38:54;;;;;;;0.20;0.10;;;7.80;99.90;;;;;;20798495;28;20225;-65
2021/12/15 04:48:59;;;;;;;0.20;0.10;;;7.70;99.90;;;;;;20820660;28;20628;-64
2021/12/15 04:59:03;;;;;;;0.20;0.10;;;7.90;99.90;;;;;;20837240;28;20305;-64
2021/12/15 05:09:09;;;;;;;0.20;0.10;;;7.90;99.90;;;;;;20792815;28;20222;-64
2021/12/15 05:19:12;;;;;;;0.20;0.10;;;8.00;99.90;;;;;;20835177;28;20320;-64
2021/12/15 05:29:18;;;;;;;0.20;0.10;;;7.90;99.90;;;;;;20834143;28;20225;-63
2021/12/15 05:39:23;;;;;;;0.20;0.10;;;7.70;99.90;;;;;;20827878;28;20726;-65
2021/12/15 05:49:28;;;;;;;0.20;0.10;;;7.60;99.90;;;;;;20833071;28;20190;-64
2021/12/15 05:59:32;;;;;;;0.20;0.10;;;7.30;99.90;;;;;;20829129;28;20285;-65
2021/12/15 06:09:37;;;;;;;0.20;0.10;;;7.40;99.90;;;;;;20830440;28;20301;-64
2021/12/15 06:19:41;;;;;;;0.20;0.00;;;7.20;99.90;;;;;;20830071;28;20726;-67
2021/12/15 06:29:48;;;;;;;0.53;0.53;;;7.30;99.90;;;;;;20829125;28;20198;-66
2021/12/15 06:39:51;;;;;;;0.20;0.10;;;7.10;99.90;;;;;;20828368;28;20639;-67
2021/12/15 07:00:18;;;;;;;0.20;0.00;;;7.10;99.90;;;;;;20808631;28;20258;-66
2021/12/15 07:10:26;;;;;;;0.20;0.10;;;7.40;99.90;;;;;;20887090;28;20221;-65
2021/12/15 07:20:39;;;;;;;0.20;0.10;;;7.00;99.90;;;;;;20804775;28;20642;-70
2021/12/15 07:30:45;;;;;;;0.20;0.10;;;7.40;99.90;;;;;;20821174;28;20300;-67
2021/12/15 07:40:49;;;;;;;0.87;0.77;;;7.50;99.90;;;;;;20822816;28;20257;-66
2021/12/15 07:50:58;;;;;;;0.20;0.10;;;7.70;99.90;;;;;;20823097;28;20238;-65
2021/12/15 08:01:04;;;;;;;0.20;0.10;;;8.00;99.90;;;;;;20819899;28;20614;-67
2021/12/15 08:11:09;;;;;;;0.20;0.00;;;8.70;99.90;;;;;;20772614;28;20199;-64
2021/12/15 08:21:13;;;;;;;0.20;0.10;;;9.20;99.90;;;;;;20735387;28;20229;-65
2021/12/15 08:31:18;;;;;;;0.20;0.10;;;9.80;99.90;;;;;;20736336;28;20210;-66
2021/12/15 08:41:26;;;;;;;0.20;0.10;;;10.30;99.90;;;;;;20744906;28;20226;-69
2021/12/15 08:51:31;;;;;;;0.20;0.10;;;10.60;99.90;;;;;;20752493;28;20198;-69
2021/12/15 09:01:35;;;;;;;0.20;0.10;;;11.00;99.90;;;;;;20784338;28;20304;-65
2021/12/15 09:11:40;;;;;;;0.20;0.10;;;11.30;99.90;;;;;;20861627;28;20197;-66
2021/12/15 09:21:44;;;;;;;0.20;0.00;;;11.70;99.90;;;;;;20916478;28;20186;-66
2021/12/15 09:31:49;;;;;;;0.20;0.10;;;12.20;99.90;;;;;;20916310;28;20198;-65
2021/12/15 09:41:53;;;;;;;0.20;0.10;;;12.50;99.90;;;;;;20861390;28;20566;-68
2021/12/15 10:02:45;;;;;;;0.20;0.07;;;13.20;99.90;;;;;;20765143;28;20324;-68
2021/12/15 10:23:23;;;;;;;0.20;0.10;;;15.00;99.90;;;;;;20876653;28;20288;-67
2021/12/15 10:33:30;;;;;;;0.20;0.00;;;16.30;99.90;;;;;;20817542;28;20253;-68
2021/12/15 10:43:38;;;;;;;0.20;0.10;;;17.30;99.90;;;;;;20825301;28;20204;-66
2021/12/15 10:53:43;;;;;;;0.20;0.10;;;17.40;99.90;;;;;;20825343;28;20222;-66
2021/12/15 11:03:46;;;;;;;0.20;0.10;;;17.40;99.90;;;;;;20821624;28;20591;-68
2021/12/15 11:13:56;;;;;;;0.20;0.10;;;17.50;99.90;;;;;;20811248;28;20224;-69
2021/12/15 11:24:01;;;;;;;0.20;0.03;;;17.80;99.90;;;;;;20806806;28;20202;-67
2021/12/15 11:34:13;;;;;;;0.30;0.30;;;18.00;99.90;;;;;;20757092;28;20229;-67
2021/12/15 11:44:18;;;;;;;0.20;0.10;;;18.10;99.90;;;;;;20791904;28;20560;-67
2021/12/15 11:54:25;;;;;;;0.20;0.00;;;18.40;99.90;;;;;;20808942;28;20260;-68
2021/12/15 12:04:43;;;;;;;0.20;0.10;;;18.90;99.90;;;;;;20790996;28;20226;-70
2021/12/15 12:14:51;;;;;;;0.20;0.10;;;19.50;99.90;;;;;;20818395;28;20229;-69
2021/12/15 12:24:57;;;;;;;0.20;0.00;;;19.50;99.90;;;;;;20793522;28;20202;-69
2021/12/15 12:35:05;;;;;;;0.20;0.10;;;20.00;99.90;;;;;;20823657;28;20222;-69
2021/12/15 12:45:17;;;;;;;0.20;0.00;;;19.90;99.90;;;;;;20828581;28;20305;-72
2021/12/15 13:05:49;;;;;;;0.20;0.00;;;19.80;99.90;;;;;;20822205;28;20234;-72
2021/12/15 13:15:58;;;;;;;0.20;0.00;;;19.80;99.90;;;;;;20879383;28;20245;-70
2021/12/15 13:36:26;;;;;;;0.20;0.07;;;19.60;99.90;;;;;;20802419;28;20666;-68
2021/12/15 13:46:47;;;;;;;0.20;0.00;;;19.20;99.90;;;;;;20815321;28;20194;-69
2021/12/15 13:56:53;;;;;;;0.20;0.20;;;19.80;99.90;;;;;;20826417;28;20645;-68
2021/12/15 14:07:18;;;;;;;0.20;0.00;;;20.10;99.90;;;;;;20890913;28;20233;-67
2021/12/15 14:17:23;;;;;;;0.20;0.10;;;20.50;99.90;;;;;;20885482;28;20731;-69
2021/12/15 14:27:28;;;;;;;0.20;0.10;;;20.40;99.90;;;;;;20907005;28;20902;-69
2021/12/15 14:37:33;;;;;;;0.20;0.17;;;21.10;99.90;;;;;;20905499;28;20340;-69
2021/12/15 14:47:39;;;;;;;0.20;0.10;;;19.80;99.90;;;;;;20888189;28;20201;-68
2021/12/15 14:57:45;;;;;;;0.30;0.30;;;18.50;99.90;;;;;;20860770;28;20326;-69
2021/12/15 15:07:54;;;;;;;0.30;0.30;;;18.50;99.90;;;;;;20820981;28;20226;-69
2021/12/15 15:18:05;;;;;;;0.20;0.00;;;18.90;99.90;;;;;;20880344;28;20221;-69
2021/12/15 15:28:12;;;;;;;0.20;0.10;;;19.40;99.90;;;;;;20890959;28;20281;-69
2021/12/15 15:38:20;;;;;;;0.20;0.10;;;19.30;99.90;;;;;;20851990;28;20317;-70
2021/12/15 15:48:26;;;;;;;0.20;0.10;;;18.40;99.90;;;;;;20805704;28;20264;-66
2021/12/15 15:58:31;;;;;;;0.20;0.10;;;16.50;99.90;;;;;;20821076;28;20695;-67
2021/12/15 16:08:39;;;;;;;0.20;0.00;;;15.00;99.90;;;;;;20739507;28;20683;-68
2021/12/15 16:18:48;;;;;;;0.20;0.00;;;14.20;99.90;;;;;;20823549;28;20222;-69
2021/12/15 16:28:51;;;;;;;0.20;0.00;;;13.50;99.90;;;;;;20832895;28;20271;-68
2021/12/15 16:38:58;;;;;;;0.20;0.10;;;13.00;99.90;;;;;;20761308;28;20626;-69
2021/12/15 16:49:06;;;;;;;0.20;0.10;;;12.60;99.90;;;;;;20751850;28;20206;-69
2021/12/15 16:59:16;;;;;;;0.20;0.10;;;12.20;99.90;;;;;;20748790;28;20667;-68
2021/12/15 17:09:29;;;;;;;0.20;0.10;;;11.80;99.90;;;;;;20829803;28;20679;-67
2021/12/15 17:19:34;;;;;;;3.03;0.73;;;11.60;99.90;;;;;;20828595;28;20316;-69
2021/12/15 17:29:38;;;;;;;0.20;0.10;;;11.50;99.90;;;;;;20827395;28;20277;-68
2021/12/15 17:39:47;;;;;;;0.20;0.10;;;11.30;99.90;;;;;;20812607;28;20214;-67
2021/12/15 17:49:53;;;;;;;0.20;0.10;;;11.10;99.90;;;;;;20829363;28;20558;-67
2021/12/15 17:59:59;;;;;;;0.20;0.10;;;10.90;99.90;;;;;;20827692;28;20218;-67
2021/12/15 18:10:08;;;;;;;0.20;0.20;;;10.70;99.90;;;;;;20838971;28;20456;-67
2021/12/15 18:20:15;;;;;;;0.20;0.10;;;10.50;99.90;;;;;;20892737;28;20320;-67
2021/12/15 18:30:20;;;;;;;0.20;0.13;;;10.50;99.90;;;;;;20906330;28;20197;-66
2021/12/15 18:40:28;;;;;;;0.20;0.10;;;10.40;99.90;;;;;;20811521;28;20240;-66
2021/12/15 18:50:48;;;;;;;0.20;0.10;;;10.30;99.90;;;;;;20823950;28;20217;-67
2021/12/15 19:00:55;;;;;;;0.20;0.10;;;10.10;99.90;;;;;;20820325;28;20233;-68
2021/12/15 19:10:58;;;;;;;0.20;0.10;;;9.90;99.90;;;;;;20820057;28;20548;-67
2021/12/15 19:21:05;;;;;;;0.20;0.10;;;9.80;99.90;;;;;;20821426;28;20718;-66
2021/12/15 19:31:09;;;;;;;5.73;5.27;;;9.70;99.90;;;;;;20820523;28;20198;-67
2021/12/15 19:41:16;;;;;;;0.20;0.10;;;9.80;99.90;;;;;;20753409;28;20231;-67
2021/12/15 19:51:23;;;;;;;0.20;0.10;;;9.60;99.90;;;;;;20739074;28;20244;-67
2021/12/15 20:01:32;;;;;;;0.20;0.10;;;9.60;99.90;;;;;;20754134;28;20320;-69
2021/12/15 20:11:37;;;;;;;0.20;0.10;;;9.40;99.90;;;;;;20843517;28;20193;-68
2021/12/15 20:21:44;;;;;;;0.20;0.10;;;9.30;99.90;;;;;;20883767;28;20240;-67
2021/12/15 20:31:48;;;;;;;0.20;0.07;;;9.40;99.90;;;;;;20894729;28;20224;-67
2021/12/15 20:41:53;;;;;;;0.20;0.10;;;9.50;99.90;;;;;;20832476;28;20225;-67
2021/12/15 20:51:57;;;;;;;0.20;0.10;;;9.40;99.90;;;;;;20833454;28;20281;-67
2021/12/15 21:02:02;;;;;;;0.20;0.10;;;9.50;99.90;;;;;;20834186;28;20222;-68
2021/12/15 21:12:08;;;;;;;0.20;0.10;;;9.30;99.90;;;;;;20815543;28;21181;-68
2021/12/15 21:22:17;;;;;;;0.20;0.10;;;9.00;99.90;;;;;;20781547;28;20282;-67
2021/12/15 21:32:21;;;;;;;0.20;0.10;;;8.80;99.90;;;;;;20746165;28;20266;-68
2021/12/15 21:42:26;;;;;;;0.20;0.10;;;9.00;99.90;;;;;;20747680;28;20281;-67
2021/12/15 21:52:33;;;;;;;0.20;0.10;;;9.00;99.90;;;;;;20746870;28;20204;-67
2021/12/15 22:02:38;;;;;;;0.20;0.10;;;8.60;99.90;;;;;;20766682;28;20340;-67
2021/12/15 22:12:41;;;;;;;0.20;0.10;;;8.80;99.90;;;;;;20843011;28;20288;-68
2021/12/15 22:22:47;;;;;;;2.97;2.80;;;8.90;99.90;;;;;;20909648;28;20225;-67
2021/12/15 22:32:56;;;;;;;0.20;0.10;;;8.60;99.90;;;;;;20892002;28;20296;-70
2021/12/15 22:43:02;;;;;;;0.20;0.10;;;8.80;99.90;;;;;;20824501;28;20264;-67
2021/12/15 22:53:18;;;;;;;0.20;0.10;;;8.70;99.90;;;;;;20825146;28;20232;-68
2021/12/15 23:03:25;;;;;;;0.33;0.30;;;8.50;99.90;;;;;;20805655;28;20818;-67
2021/12/15 23:13:33;;;;;;;0.20;0.07;;;8.70;99.90;;;;;;20862439;28;20225;-69
2021/12/15 23:23:39;;;;;;;0.20;0.10;;;8.50;99.90;;;;;;20886847;28;20227;-69
2021/12/15 23:33:43;;;;;;;0.20;0.00;;;8.30;99.90;;;;;;20880603;28;20718;-69
